createdAt,value
2018-08-03T05:38:49.045Z,20.70
2018-08-03T05:41:18.614Z,20.70
2018-08-03T05:43:49.972Z,20.80
2018-08-03T05:46:18.696Z,21.00
2018-08-03T05:48:47.783Z,21.20
2018-08-03T05:51:17.199Z,21.40
2018-08-03T05:53:46.350Z,21.50
2018-08-03T05:56:15.438Z,21.70
2018-08-03T05:58:45.071Z,21.80
2018-08-03T06:01:14.122Z,21.90
2018-08-03T06:03:43.611Z,22.00
2018-08-03T06:06:12.648Z,22.00
2018-08-03T06:08:41.442Z,22.20
2018-08-03T06:11:10.839Z,22.20
2018-08-03T06:13:39.924Z,22.30
2018-08-03T06:16:10.102Z,22.40
2018-08-03T06:18:39.802Z,22.50
2018-08-03T06:21:09.445Z,22.60
2018-08-03T06:23:38.387Z,22.60
2018-08-03T06:26:07.685Z,22.70
2018-08-03T06:28:37.227Z,22.80
2018-08-03T06:31:06.954Z,22.90
2018-08-03T06:33:36.293Z,22.90
2018-08-03T06:36:05.336Z,23.00
2018-08-03T06:38:34.651Z,23.10
2018-08-03T06:41:04.062Z,23.20
2018-08-03T06:43:33.624Z,23.40
2018-08-03T06:46:02.803Z,23.50
2018-08-03T06:48:31.993Z,23.70
2018-08-03T06:51:01.064Z,23.80
2018-08-03T06:53:33.412Z,23.90
2018-08-03T06:56:02.825Z,24.00
2018-08-03T06:58:31.601Z,24.20
2018-08-03T07:01:00.867Z,24.20
2018-08-03T07:03:30.099Z,24.30
2018-08-03T07:05:58.843Z,24.40
2018-08-03T07:08:28.424Z,24.50
2018-08-03T07:10:57.382Z,24.50
2018-08-03T07:13:26.199Z,24.50
2018-08-03T07:15:55.287Z,24.60
2018-08-03T07:18:24.802Z,24.60
2018-08-03T07:20:54.671Z,24.70
2018-08-03T07:23:23.399Z,24.70
2018-08-03T07:25:52.213Z,24.70
2018-08-03T07:28:21.181Z,24.70
2018-08-03T07:30:50.009Z,24.80
2018-08-03T07:33:19.256Z,24.80
2018-08-03T07:35:47.984Z,24.80
2018-08-03T07:38:16.685Z,24.90
2018-08-03T07:40:45.418Z,24.90
2018-08-03T07:43:14.209Z,25.00
2018-08-03T07:45:43.262Z,25.00
2018-08-03T07:48:12.750Z,25.00
2018-08-03T07:50:41.902Z,25.00
2018-08-03T07:53:10.960Z,25.10
2018-08-03T07:55:40.128Z,25.10
2018-08-03T07:58:09.151Z,25.10
2018-08-03T08:00:37.972Z,25.10
2018-08-03T08:05:35.744Z,25.20
2018-08-03T08:08:04.905Z,25.20
2018-08-03T08:10:33.836Z,25.20
2018-08-03T08:13:02.996Z,25.20
2018-08-03T08:15:31.743Z,25.30
2018-08-03T08:18:00.747Z,25.30
2018-08-03T08:20:30.176Z,25.30
2018-08-03T08:22:59.156Z,25.40
2018-08-03T08:25:28.302Z,25.40
2018-08-03T08:27:57.138Z,25.40
2018-08-03T08:30:26.283Z,25.40
2018-08-03T08:35:24.153Z,25.50
2018-08-03T08:37:53.271Z,25.50
2018-08-03T08:40:21.990Z,25.60
2018-08-03T08:42:50.996Z,25.60
2018-08-03T08:45:20.432Z,25.60
2018-08-03T08:47:49.180Z,25.60
2018-08-03T08:50:17.991Z,25.70
2018-08-03T08:52:47.119Z,25.70
2018-08-03T08:55:16.271Z,25.70
2018-08-03T08:57:45.538Z,25.80
2018-08-03T09:00:14.664Z,25.80
2018-08-03T09:02:43.766Z,25.80
2018-08-03T09:05:12.564Z,25.90
2018-08-03T09:07:41.395Z,25.90
2018-08-03T09:10:11.055Z,25.90
2018-08-03T09:12:39.887Z,25.90
2018-08-03T09:15:09.107Z,26.00
2018-08-03T09:17:38.193Z,26.00
2018-08-03T09:20:06.992Z,26.00
2018-08-03T09:22:36.083Z,26.00
2018-08-03T09:25:05.155Z,26.00
2018-08-03T09:27:33.863Z,26.00
2018-08-03T09:30:02.618Z,26.10
2018-08-03T09:32:31.747Z,26.10
2018-08-03T09:35:00.468Z,26.10
2018-08-03T09:37:29.269Z,26.20
2018-08-03T09:39:58.111Z,26.20
2018-08-03T09:42:26.915Z,26.20
2018-08-03T09:44:55.644Z,26.20
2018-08-03T09:47:24.782Z,26.20
2018-08-03T09:49:54.123Z,26.20
2018-08-03T09:52:23.764Z,26.20
2018-08-03T09:54:52.835Z,26.20
2018-08-03T09:57:22.264Z,26.30
2018-08-03T09:59:51.525Z,26.30
2018-08-03T10:02:20.934Z,26.40
2018-08-03T10:04:50.058Z,26.30
2018-08-03T10:07:19.588Z,26.40
2018-08-03T10:09:48.685Z,26.40
2018-08-03T10:12:18.171Z,26.40
2018-08-03T10:14:47.602Z,26.50
2018-08-03T10:17:16.314Z,26.50
2018-08-03T10:22:14.503Z,26.60
2018-08-03T10:24:43.232Z,26.60
2018-08-03T10:27:12.036Z,26.60
2018-08-03T10:29:41.154Z,26.60
2018-08-03T10:32:10.224Z,26.70
2018-08-03T10:34:39.342Z,26.70
2018-08-03T10:37:08.449Z,26.70
2018-08-03T10:39:37.135Z,26.80
2018-08-03T10:42:05.854Z,26.80
2018-08-03T10:44:35.006Z,26.80
2018-08-03T10:47:04.350Z,26.90
2018-08-03T10:49:34.014Z,26.90
2018-08-03T10:52:03.355Z,26.90
2018-08-03T10:54:32.860Z,27.00
2018-08-03T10:57:02.224Z,27.00
2018-08-03T10:59:32.123Z,27.10
2018-08-03T11:02:01.413Z,27.10
2018-08-03T11:04:30.152Z,27.10
2018-08-03T11:06:59.464Z,27.20
2018-08-03T11:09:28.216Z,27.20
2018-08-03T11:11:57.163Z,27.20
2018-08-03T11:14:25.903Z,27.20
2018-08-03T11:16:54.659Z,27.30
2018-08-03T11:19:23.407Z,27.30
2018-08-03T11:21:52.951Z,27.30
2018-08-03T11:24:21.732Z,27.30
2018-08-03T11:26:50.594Z,27.40
2018-08-03T11:29:19.498Z,27.40
2018-08-03T11:31:48.295Z,27.40
2018-08-03T11:34:18.353Z,27.40
2018-08-03T11:36:47.262Z,27.40
2018-08-03T11:39:16.240Z,27.40
2018-08-03T11:41:44.968Z,27.50
2018-08-03T11:44:14.406Z,27.50
2018-08-03T11:46:43.587Z,27.50
2018-08-03T11:49:13.137Z,27.60
2018-08-03T11:51:41.843Z,27.60
2018-08-03T11:54:10.875Z,27.60
2018-08-03T11:59:08.568Z,27.60
2018-08-03T12:01:38.464Z,27.70
2018-08-03T12:04:07.954Z,27.70
2018-08-03T12:06:37.284Z,27.70
2018-08-03T12:09:07.275Z,27.70
2018-08-03T12:11:36.469Z,27.80
2018-08-03T12:14:05.237Z,27.70
2018-08-03T12:16:34.000Z,27.80
2018-08-03T12:19:02.826Z,27.70
2018-08-03T12:21:32.198Z,27.80
2018-08-03T12:24:01.314Z,27.80
2018-08-03T12:26:30.386Z,27.80
2018-08-03T12:28:59.495Z,27.80
2018-08-03T12:31:28.738Z,27.80
2018-08-03T12:33:58.079Z,27.80
2018-08-03T12:36:27.319Z,27.90
2018-08-03T12:38:56.343Z,27.90
2018-08-03T12:41:25.382Z,27.90
2018-08-03T12:43:54.511Z,27.90
2018-08-03T12:46:23.763Z,27.90
2018-08-03T12:48:53.247Z,27.90
2018-08-03T12:51:22.526Z,28.00
2018-08-03T12:53:52.039Z,27.90
2018-08-03T12:56:21.152Z,27.90
2018-08-03T12:58:51.012Z,27.90
2018-08-03T13:01:20.514Z,27.90
2018-08-03T13:03:50.066Z,28.00
2018-08-03T13:06:18.769Z,28.00
2018-08-03T13:08:47.571Z,28.00
2018-08-03T13:11:16.979Z,28.00
2018-08-03T13:13:46.183Z,28.00
2018-08-03T13:16:14.927Z,28.00
2018-08-03T13:18:44.063Z,28.00
2018-08-03T13:21:24.257Z,28.10
2018-08-03T13:23:57.431Z,28.10
2018-08-03T13:26:27.472Z,28.10
2018-08-03T13:28:57.357Z,28.10
2018-08-03T13:31:27.367Z,28.10
2018-08-03T13:33:56.240Z,28.20
2018-08-03T13:36:26.574Z,28.10
2018-08-03T13:38:55.898Z,28.20
2018-08-03T13:41:25.168Z,28.10
2018-08-03T13:43:54.484Z,28.20
2018-08-03T13:46:23.348Z,28.20
2018-08-03T13:48:52.811Z,28.20
2018-08-03T13:51:21.612Z,28.10
2018-08-03T13:53:50.710Z,28.20
2018-08-03T13:56:19.848Z,28.20
2018-08-03T13:58:48.931Z,28.20
2018-08-03T14:01:29.083Z,28.10
2018-08-03T14:03:58.245Z,28.10
2018-08-03T14:08:56.300Z,28.10
2018-08-03T14:11:25.083Z,28.10
2018-08-03T14:13:53.834Z,28.10
2018-08-03T14:16:22.896Z,28.10
2018-08-03T14:18:51.931Z,28.10
2018-08-03T14:23:49.224Z,28.10
2018-08-03T14:26:18.282Z,28.10
2018-08-03T14:28:47.020Z,28.10
2018-08-03T14:31:16.152Z,28.10
2018-08-03T14:33:44.911Z,28.10
2018-08-03T14:36:14.272Z,28.10
2018-08-03T14:38:43.035Z,28.10
2018-08-03T14:41:12.362Z,28.10
2018-08-03T14:43:41.305Z,28.10
2018-08-03T14:46:10.244Z,28.10
2018-08-03T14:48:38.975Z,28.00
2018-08-03T14:51:08.120Z,28.00
2018-08-03T14:53:36.906Z,28.00
2018-08-03T14:56:06.275Z,28.00
2018-08-03T14:58:35.051Z,28.00
2018-08-03T15:01:04.082Z,28.00
2018-08-03T15:03:33.287Z,28.00
2018-08-03T15:06:02.489Z,28.00
2018-08-03T15:08:31.475Z,28.00
2018-08-03T15:11:00.214Z,28.10
2018-08-03T15:13:28.982Z,28.00
2018-08-03T15:15:57.689Z,28.10
2018-08-03T15:18:26.409Z,28.10
2018-08-03T15:23:23.987Z,28.20
2018-08-03T15:28:22.471Z,28.20
2018-08-03T15:30:51.606Z,28.20
2018-08-03T15:33:20.318Z,28.20
2018-08-03T15:35:49.369Z,28.30
2018-08-03T15:38:18.079Z,28.30
2018-08-03T15:40:47.030Z,28.40
2018-08-03T15:43:16.190Z,28.40
2018-08-03T15:45:45.634Z,28.40
2018-08-03T15:48:14.831Z,28.40
2018-08-03T15:55:40.839Z,28.50
2018-08-03T15:58:09.935Z,28.40
2018-08-03T16:00:39.049Z,28.40
2018-08-03T16:03:08.130Z,28.50
2018-08-03T16:05:36.850Z,28.50
2018-08-03T16:08:05.559Z,28.50
2018-08-03T16:10:35.043Z,28.50
2018-08-03T16:13:04.587Z,28.50
2018-08-03T16:15:34.035Z,28.50
2018-08-03T16:18:03.551Z,28.50
2018-08-03T16:20:32.823Z,28.50
2018-08-03T16:23:02.661Z,28.40
2018-08-03T16:28:00.458Z,28.40
2018-08-03T16:30:29.610Z,28.40
2018-08-03T16:32:58.586Z,28.30
2018-08-03T16:35:27.718Z,28.40
2018-08-03T16:37:56.834Z,28.40
2018-08-03T16:40:26.219Z,28.40
2018-08-03T16:42:55.252Z,28.40
2018-08-03T16:45:24.538Z,28.50
2018-08-03T16:47:54.146Z,28.60
2018-08-03T16:50:23.178Z,28.70
2018-08-03T16:52:51.894Z,28.80
2018-08-03T16:57:49.715Z,28.90
2018-08-03T17:00:18.967Z,29.00
2018-08-03T17:02:48.779Z,29.10
2018-08-03T17:07:46.439Z,29.20
2018-08-03T17:10:15.556Z,29.40
2018-08-03T17:15:13.494Z,29.40
2018-08-03T17:17:42.664Z,29.40
2018-08-03T17:20:12.091Z,29.50
2018-08-03T17:22:41.647Z,29.50
2018-08-03T17:25:11.051Z,29.60
2018-08-03T17:27:40.471Z,29.60
2018-08-03T17:30:09.679Z,29.60
2018-08-03T17:32:39.307Z,29.60
2018-08-03T17:35:08.046Z,29.70
2018-08-03T17:37:37.711Z,29.60
2018-08-03T17:40:06.814Z,29.60
2018-08-03T17:45:05.172Z,29.60
2018-08-03T17:47:34.241Z,29.60
2018-08-03T17:50:03.178Z,29.60
2018-08-03T17:52:31.944Z,29.60
2018-08-03T17:55:01.350Z,29.50
2018-08-03T17:57:30.466Z,29.60
2018-08-03T17:59:59.871Z,29.60
2018-08-03T18:04:57.104Z,29.50
2018-08-03T18:07:25.794Z,29.50
2018-08-03T18:09:54.947Z,29.50
2018-08-03T18:12:24.382Z,29.50
2018-08-03T18:14:53.468Z,29.40
2018-08-03T18:17:22.479Z,29.40
2018-08-03T18:19:51.686Z,29.40
2018-08-03T18:22:20.436Z,29.40
2018-08-03T18:24:49.150Z,29.40
2018-08-03T18:27:17.987Z,29.30
2018-08-03T18:29:47.401Z,29.30
2018-08-03T18:32:16.144Z,29.30
2018-08-03T18:34:44.886Z,29.20
2018-08-03T18:37:14.256Z,29.20
2018-08-03T18:39:43.269Z,29.10
2018-08-03T18:42:12.450Z,29.10
2018-08-03T18:44:41.227Z,29.00
2018-08-03T18:49:39.075Z,28.90
2018-08-03T18:52:08.261Z,28.80
2018-08-03T18:54:37.415Z,28.70
2018-08-03T18:57:06.615Z,28.70
2018-08-03T18:59:35.497Z,28.60
2018-08-03T19:04:32.644Z,28.50
2018-08-03T19:07:01.732Z,28.40
2018-08-03T19:09:30.547Z,28.40
2018-08-03T19:11:59.572Z,28.30
2018-08-03T19:14:28.991Z,28.30
2018-08-03T19:16:57.676Z,28.30
2018-08-03T19:19:26.698Z,28.20
2018-08-03T19:21:55.849Z,28.20
2018-08-03T19:24:25.205Z,28.10
2018-08-03T19:26:55.050Z,28.10
2018-08-03T19:29:24.488Z,28.00
2018-08-03T19:31:53.691Z,28.00
2018-08-03T19:34:22.957Z,27.90
2018-08-03T19:36:51.784Z,27.90
2018-08-03T19:39:21.047Z,27.80
2018-08-03T19:41:50.288Z,27.70
2018-08-03T19:44:19.299Z,27.60
2018-08-03T19:46:48.762Z,27.50
2018-08-03T19:49:17.975Z,27.50
2018-08-03T19:51:46.770Z,27.40
2018-08-03T19:54:15.958Z,27.30
2018-08-03T19:59:14.269Z,27.10
2018-08-03T20:01:43.176Z,27.00
2018-08-03T20:04:11.900Z,27.00
2018-08-03T20:06:41.105Z,26.90
2018-08-03T20:09:11.881Z,26.90
2018-08-03T20:11:41.040Z,26.80
2018-08-03T20:14:09.754Z,26.80
2018-08-03T20:16:38.471Z,26.80
2018-08-03T20:19:07.748Z,26.70
2018-08-03T20:21:36.645Z,26.70
2018-08-03T20:24:06.808Z,26.50
2018-08-03T20:26:35.812Z,26.50
2018-08-03T20:29:05.415Z,26.40
2018-08-03T20:31:34.421Z,26.40
2018-08-03T20:34:03.235Z,26.30
2018-08-03T20:36:32.251Z,26.20
2018-08-03T20:39:01.332Z,26.20
2018-08-03T20:41:30.063Z,26.20
2018-08-03T20:43:58.831Z,26.10
2018-08-03T20:46:28.631Z,26.10
2018-08-03T20:48:57.774Z,26.00
2018-08-03T20:53:55.693Z,25.90
2018-08-03T20:56:25.143Z,25.90
2018-08-03T20:58:53.872Z,25.90
